Aviation Digital Data Service (ADDS)

Output produced by TAFs form (1711 UTC 03 August 2015)
found at http://aviationweather.gov/adds/tafs/
 
KABQ 031121Z 0312/0412 VRB06KT P6SM FEW040 SCT120 
     FM031900 29010KT P6SM SCT100 
     FM040200 36006KT P6SM FEW150